Time;durP1;ratioP1;P1;durP2;ratioP2;P2;SDS_P1;SDS_P2;PMS_P1;PMS_P2;Temp;Humidity;BMP_temperature;BMP_pressure;BME280_temperature;BME280_humidity;BME280_pressure;Samples;Min_cycle;Max_cycle;Signal;HPM_P1;HPM_P2
2021/10/26 00:00:25;;;;;;;16.20;8.20;;;4.00;99.90;;;;;;5036896;28;20184;-85
2021/10/26 00:02:50;;;;;;;21.10;8.57;;;3.90;99.90;;;;;;5054396;28;20187;-85
2021/10/26 00:05:16;;;;;;;22.33;8.63;;;4.00;99.90;;;;;;5036863;28;20188;-86
2021/10/26 00:07:42;;;;;;;16.53;7.97;;;5.20;99.90;;;;;;5052610;28;20176;-86
2021/10/26 00:10:08;;;;;;;15.33;8.40;;;3.80;99.90;;;;;;5073776;28;20191;-85
2021/10/26 00:12:34;;;;;;;19.00;8.47;;;3.80;99.90;;;;;;5059766;28;20206;-85
2021/10/26 00:15:00;;;;;;;18.93;8.80;;;3.70;99.90;;;;;;5054464;28;20234;-86
2021/10/26 00:17:26;;;;;;;25.23;8.57;;;3.70;99.90;;;;;;5036484;28;20644;-86
2021/10/26 00:19:52;;;;;;;17.93;8.87;;;3.70;99.90;;;;;;5054278;28;20179;-85
2021/10/26 00:22:18;;;;;;;21.77;10.40;;;3.70;99.90;;;;;;5020128;28;20279;-87
2021/10/26 00:24:44;;;;;;;21.53;9.97;;;3.70;99.90;;;;;;5032784;28;20242;-86
2021/10/26 00:27:10;;;;;;;25.33;11.07;;;4.60;99.90;;;;;;5034074;28;20184;-86
2021/10/26 00:29:36;;;;;;;29.40;12.27;;;3.60;99.90;;;;;;5032999;28;20740;-86
2021/10/26 00:32:02;;;;;;;25.23;10.87;;;3.60;99.90;;;;;;5033823;28;20207;-86
2021/10/26 00:34:28;;;;;;;28.13;13.13;;;3.60;99.90;;;;;;5033062;28;20196;-87
2021/10/26 00:36:54;;;;;;;26.97;12.03;;;3.60;99.90;;;;;;5032587;28;20183;-86
2021/10/26 00:39:20;;;;;;;26.27;12.33;;;3.50;99.90;;;;;;5033020;28;20270;-87
2021/10/26 00:41:46;;;;;;;23.63;11.47;;;3.50;99.90;;;;;;5034368;28;20640;-87
2021/10/26 00:44:12;;;;;;;23.50;11.67;;;3.50;99.90;;;;;;5033731;28;20356;-87
2021/10/26 00:46:38;;;;;;;26.37;11.73;;;3.40;99.90;;;;;;5032805;28;20188;-87
2021/10/26 00:49:05;;;;;;;22.53;10.70;;;4.20;99.90;;;;;;5033563;28;20576;-86
2021/10/26 00:51:32;;;;;;;26.00;10.27;;;3.40;99.90;;;;;;5000061;28;20208;-86
2021/10/26 00:53:58;;;;;;;21.23;9.70;;;3.40;99.90;;;;;;5032647;28;20184;-86
2021/10/26 00:56:24;;;;;;;17.83;8.87;;;3.30;99.90;;;;;;5032534;28;20177;-86
2021/10/26 00:58:51;;;;;;;16.73;8.83;;;3.30;99.90;;;;;;5034163;28;20279;-86
2021/10/26 01:01:17;;;;;;;20.47;9.77;;;4.70;99.90;;;;;;5033713;28;20191;-86
2021/10/26 01:03:42;;;;;;;19.40;9.17;;;3.50;99.90;;;;;;5032576;28;20174;-87
2021/10/26 01:06:09;;;;;;;22.00;10.57;;;3.30;99.90;;;;;;5033888;28;20187;-87
2021/10/26 01:08:35;;;;;;;19.23;10.10;;;3.20;99.90;;;;;;5033684;28;20183;-87
2021/10/26 01:11:01;;;;;;;38.10;14.67;;;3.20;99.90;;;;;;5015950;28;20218;-86
2021/10/26 01:13:27;;;;;;;35.33;16.73;;;3.20;99.90;;;;;;5033790;28;20275;-86
2021/10/26 01:15:56;;;;;;;36.33;15.60;;;3.20;99.90;;;;;;5033435;28;20182;-86
2021/10/26 01:18:26;;;;;;;40.30;16.30;;;3.10;99.90;;;;;;5033619;28;20178;-86
2021/10/26 01:20:55;;;;;;;31.63;13.73;;;3.10;99.90;;;;;;5033620;28;20185;-86
2021/10/26 01:23:21;;;;;;;39.67;14.93;;;3.10;99.90;;;;;;5031868;28;20699;-86
2021/10/26 01:25:48;;;;;;;36.07;14.43;;;3.00;99.90;;;;;;5033829;28;20184;-87
2021/10/26 01:28:14;;;;;;;38.53;15.37;;;3.60;99.90;;;;;;5031768;28;20221;-86
2021/10/26 01:30:41;;;;;;;33.00;15.67;;;3.00;99.90;;;;;;5031916;28;20719;-86
2021/10/26 01:33:07;;;;;;;28.37;13.93;;;3.30;99.90;;;;;;5033308;28;20180;-86
2021/10/26 01:35:34;;;;;;;36.90;14.60;;;3.10;99.90;;;;;;5032257;28;20183;-86
2021/10/26 01:38:01;;;;;;;28.77;12.40;;;3.10;99.90;;;;;;5033129;28;20177;-85
2021/10/26 01:40:27;;;;;;;30.03;13.20;;;3.10;99.90;;;;;;5032236;28;20275;-87
2021/10/26 01:42:53;;;;;;;30.27;13.00;;;3.80;99.90;;;;;;5042855;28;20231;-85
2021/10/26 01:45:19;;;;;;;28.63;13.43;;;3.20;99.90;;;;;;5056208;28;20180;-86
2021/10/26 01:47:45;;;;;;;21.87;11.73;;;3.20;99.90;;;;;;5045461;28;20191;-86
2021/10/26 01:50:13;;;;;;;17.37;9.17;;;3.20;99.90;;;;;;5036046;28;20178;-86
2021/10/26 01:52:39;;;;;;;20.80;9.90;;;3.20;99.90;;;;;;5037421;28;20208;-86
2021/10/26 01:55:06;;;;;;;16.67;9.83;;;3.30;99.90;;;;;;5036846;28;20211;-85
2021/10/26 01:57:32;;;;;;;20.23;9.13;;;3.30;99.90;;;;;;5036260;28;20175;-86
2021/10/26 01:59:59;;;;;;;19.43;8.53;;;3.30;99.90;;;;;;5036941;28;20180;-86
2021/10/26 02:02:25;;;;;;;18.47;8.30;;;3.30;99.90;;;;;;5035754;28;20282;-86
2021/10/26 02:04:52;;;;;;;18.20;8.57;;;3.50;99.90;;;;;;5019539;28;20246;-85
2021/10/26 02:07:18;;;;;;;20.17;9.43;;;3.30;99.90;;;;;;5035520;28;20195;-85
2021/10/26 02:09:44;;;;;;;19.27;9.13;;;3.30;99.90;;;;;;5036836;28;20179;-86
2021/10/26 02:12:10;;;;;;;16.70;8.90;;;3.30;99.90;;;;;;5035590;28;20322;-85
2021/10/26 02:14:36;;;;;;;28.37;12.07;;;3.30;99.90;;;;;;5019300;28;20195;-86
2021/10/26 02:17:03;;;;;;;31.70;12.50;;;3.30;99.90;;;;;;5036812;28;20223;-86
2021/10/26 02:19:29;;;;;;;25.53;10.83;;;3.30;99.90;;;;;;5035413;28;20196;-86
2021/10/26 02:21:54;;;;;;;21.90;10.70;;;3.30;99.90;;;;;;5035901;28;20549;-86
2021/10/26 02:24:20;;;;;;;21.93;9.90;;;3.20;99.90;;;;;;5035084;28;20231;-86
2021/10/26 02:26:46;;;;;;;24.90;11.80;;;3.30;99.90;;;;;;5019113;28;20553;-86
2021/10/26 02:29:12;;;;;;;23.50;10.53;;;3.60;99.90;;;;;;5036246;28;20747;-86
2021/10/26 02:31:38;;;;;;;23.93;10.77;;;3.30;99.90;;;;;;5036629;28;20283;-86
2021/10/26 02:34:04;;;;;;;21.97;10.70;;;4.20;99.90;;;;;;5037857;28;20549;-86
2021/10/26 02:36:30;;;;;;;21.20;10.30;;;3.30;99.90;;;;;;5037470;28;20169;-86
2021/10/26 02:38:56;;;;;;;18.90;9.57;;;3.40;99.90;;;;;;5035232;28;20182;-86
2021/10/26 02:41:21;;;;;;;16.30;8.43;;;3.30;99.90;;;;;;5018544;28;20195;-86
2021/10/26 02:43:47;;;;;;;21.03;9.20;;;3.30;99.90;;;;;;5034963;28;20188;-86
2021/10/26 02:46:13;;;;;;;17.43;8.43;;;3.30;99.90;;;;;;5035017;28;20183;-86
2021/10/26 02:48:42;;;;;;;17.03;8.10;;;4.20;99.90;;;;;;5036111;28;20573;-86
2021/10/26 02:51:08;;;;;;;21.50;9.00;;;4.70;99.90;;;;;;5035179;28;20210;-86
2021/10/26 02:53:34;;;;;;;22.63;7.97;;;3.30;99.90;;;;;;5018578;28;20242;-86
2021/10/26 02:55:59;;;;;;;18.50;8.47;;;3.40;99.90;;;;;;5035178;28;20182;-86
2021/10/26 02:58:25;;;;;;;15.53;8.37;;;3.30;99.90;;;;;;5035878;28;20319;-86
2021/10/26 03:00:51;;;;;;;18.80;8.03;;;3.80;99.90;;;;;;5034320;28;20226;-86
2021/10/26 03:03:17;;;;;;;16.07;8.57;;;3.30;99.90;;;;;;5035962;28;20174;-86
2021/10/26 03:05:43;;;;;;;20.00;8.70;;;3.30;99.90;;;;;;5035740;28;20210;-86
2021/10/26 03:08:10;;;;;;;20.00;8.50;;;3.30;99.90;;;;;;5034663;28;20192;-86
2021/10/26 03:10:36;;;;;;;16.10;8.93;;;3.20;99.90;;;;;;5017944;28;20676;-86
2021/10/26 03:13:01;;;;;;;19.93;9.00;;;4.40;99.90;;;;;;5017961;28;20273;-86
2021/10/26 03:15:28;;;;;;;13.53;7.87;;;3.20;99.90;;;;;;5034235;28;20177;-85
2021/10/26 03:17:54;;;;;;;16.17;8.00;;;3.20;99.90;;;;;;5035951;28;20223;-85
2021/10/26 03:20:19;;;;;;;16.67;8.73;;;3.20;99.90;;;;;;5035260;28;20275;-85
2021/10/26 03:22:45;;;;;;;14.57;9.00;;;4.10;99.90;;;;;;5017965;28;20279;-85
2021/10/26 03:25:11;;;;;;;21.30;9.33;;;3.20;99.90;;;;;;5055809;28;20223;-85
2021/10/26 03:27:37;;;;;;;23.10;11.33;;;3.10;99.90;;;;;;5055111;28;20171;-88
2021/10/26 03:30:06;;;;;;;20.30;10.47;;;3.10;99.90;;;;;;5055283;28;20297;-85
2021/10/26 03:32:31;;;;;;;20.77;10.30;;;3.00;99.90;;;;;;5055001;28;20204;-85
2021/10/26 03:34:57;;;;;;;19.47;9.93;;;3.00;99.90;;;;;;5037621;28;20541;-85
2021/10/26 03:37:23;;;;;;;18.30;9.10;;;3.00;99.90;;;;;;5020868;28;20239;-85
2021/10/26 03:39:54;;;;;;;22.30;10.50;;;3.70;99.90;;;;;;5055565;28;20230;-84
2021/10/26 03:42:21;;;;;;;24.37;9.67;;;2.80;99.90;;;;;;5055200;28;20177;-83
2021/10/26 03:44:47;;;;;;;21.17;9.80;;;2.80;99.90;;;;;;5054884;28;20747;-87
2021/10/26 03:47:13;;;;;;;20.37;9.23;;;3.90;99.90;;;;;;5037367;28;20216;-87
2021/10/26 03:49:38;;;;;;;20.37;10.80;;;2.80;99.90;;;;;;5037148;28;20183;-87
2021/10/26 03:52:04;;;;;;;20.27;9.67;;;3.20;99.90;;;;;;5037219;28;20570;-86
2021/10/26 03:54:30;;;;;;;26.23;11.30;;;2.70;99.90;;;;;;5057175;28;20242;-86
2021/10/26 03:56:55;;;;;;;148.67;40.00;;;2.70;99.90;;;;;;5039795;28;20541;-87
2021/10/26 03:59:22;;;;;;;31.17;13.30;;;2.60;99.90;;;;;;5054879;28;20204;-86
2021/10/26 04:01:49;;;;;;;23.50;11.73;;;3.30;99.90;;;;;;5037419;28;20231;-87
2021/10/26 04:04:14;;;;;;;30.10;12.30;;;2.60;99.90;;;;;;5037294;28;20179;-87
2021/10/26 04:06:43;;;;;;;26.93;12.33;;;2.80;99.90;;;;;;5054740;28;20543;-86
2021/10/26 04:09:11;;;;;;;28.10;10.70;;;2.50;99.90;;;;;;5021664;28;20208;-86
2021/10/26 04:11:51;;;;;;;22.03;10.63;;;2.50;99.90;;;;;;5036908;28;20207;-86
2021/10/26 04:14:17;;;;;;;20.20;9.97;;;2.40;99.90;;;;;;5024763;28;20167;-86
2021/10/26 04:16:42;;;;;;;18.67;10.67;;;3.70;99.90;;;;;;5054102;28;20649;-86
2021/10/26 04:19:10;;;;;;;25.60;12.57;;;2.40;99.90;;;;;;5054732;28;20186;-86
2021/10/26 04:21:36;;;;;;;56.57;29.20;;;2.40;99.90;;;;;;5054473;28;20262;-85
2021/10/26 04:24:02;;;;;;;26.03;13.67;;;3.00;99.90;;;;;;5054305;28;20314;-87
2021/10/26 04:26:28;;;;;;;35.37;17.50;;;2.40;99.90;;;;;;5053983;28;20179;-86
2021/10/26 04:28:53;;;;;;;34.77;16.37;;;2.40;99.90;;;;;;5054211;28;20187;-86
2021/10/26 04:31:19;;;;;;;45.03;21.97;;;2.40;99.90;;;;;;5054101;28;20211;-86
2021/10/26 04:33:45;;;;;;;39.07;20.70;;;2.40;99.90;;;;;;5019820;28;20200;-86
2021/10/26 04:36:10;;;;;;;35.77;15.63;;;2.40;99.90;;;;;;5036326;28;20182;-87
2021/10/26 04:38:36;;;;;;;31.33;15.70;;;3.40;99.90;;;;;;5036091;28;20648;-87
2021/10/26 04:41:07;;;;;;;57.23;23.37;;;2.30;99.90;;;;;;5036490;28;20188;-87
2021/10/26 04:43:33;;;;;;;49.10;20.37;;;2.30;99.90;;;;;;5036254;28;20190;-86
2021/10/26 04:45:59;;;;;;;30.83;15.23;;;2.30;99.90;;;;;;5053968;28;20564;-86
2021/10/26 04:48:25;;;;;;;29.43;13.13;;;3.20;99.90;;;;;;5054041;28;20242;-87
2021/10/26 04:50:51;;;;;;;44.73;20.67;;;3.00;99.90;;;;;;5036044;28;20351;-84
2021/10/26 04:53:17;;;;;;;47.20;20.53;;;2.20;99.90;;;;;;5036111;28;20177;-85
2021/10/26 04:55:43;;;;;;;41.33;18.10;;;2.50;99.90;;;;;;5036182;28;20184;-84
2021/10/26 04:58:08;;;;;;;45.10;17.97;;;2.10;99.90;;;;;;5036030;28;20191;-85
2021/10/26 05:00:34;;;;;;;52.30;18.13;;;2.60;99.90;;;;;;5053321;28;20314;-85
2021/10/26 05:03:00;;;;;;;51.63;19.43;;;2.00;99.90;;;;;;5052847;28;20624;-84
2021/10/26 05:05:25;;;;;;;58.93;22.20;;;1.90;99.90;;;;;;5033399;28;20267;-87
2021/10/26 05:07:51;;;;;;;56.77;22.70;;;2.70;99.90;;;;;;5035066;28;20216;-88
2021/10/26 05:10:17;;;;;;;56.17;22.20;;;2.50;99.90;;;;;;5018659;28;20192;-84
2021/10/26 05:12:43;;;;;;;59.80;22.53;;;2.60;99.90;;;;;;5052482;28;20216;-84
2021/10/26 05:15:09;;;;;;;57.33;21.57;;;1.70;99.90;;;;;;5052026;28;20193;-84
2021/10/26 05:17:34;;;;;;;70.63;26.27;;;1.60;99.90;;;;;;5034358;28;20243;-84
2021/10/26 05:20:02;;;;;;;51.03;20.27;;;2.70;99.90;;;;;;5033625;28;20192;-84
2021/10/26 05:22:30;;;;;;;59.77;23.43;;;1.60;99.90;;;;;;5034157;28;20191;-87
2021/10/26 05:24:55;;;;;;;53.30;21.47;;;1.50;99.90;;;;;;5034089;28;20244;-84
2021/10/26 05:27:21;;;;;;;54.30;22.00;;;1.50;99.90;;;;;;5052139;28;20262;-84
2021/10/26 05:29:48;;;;;;;59.13;21.90;;;1.50;99.90;;;;;;5057751;28;20180;-84
2021/10/26 05:32:14;;;;;;;58.90;22.20;;;1.50;99.90;;;;;;5057066;28;20208;-84
2021/10/26 05:34:40;;;;;;;58.57;23.80;;;1.40;99.90;;;;;;5056622;28;20192;-83
2021/10/26 05:37:07;;;;;;;69.77;32.33;;;1.50;99.90;;;;;;5035452;28;20348;-83
2021/10/26 05:39:33;;;;;;;93.27;34.37;;;1.90;99.90;;;;;;5051869;28;20181;-84
2021/10/26 05:42:00;;;;;;;85.93;35.50;;;2.30;99.90;;;;;;5051583;28;20193;-83
2021/10/26 05:44:26;;;;;;;105.93;38.30;;;1.50;99.90;;;;;;5034278;28;20180;-83
2021/10/26 05:46:51;;;;;;;95.70;35.30;;;2.50;99.90;;;;;;5052100;28;20171;-84
2021/10/26 05:49:18;;;;;;;92.80;33.87;;;2.50;99.90;;;;;;5034262;28;20279;-84
2021/10/26 05:51:43;;;;;;;98.63;36.37;;;1.80;99.90;;;;;;5034061;28;20269;-83
2021/10/26 05:54:09;;;;;;;86.03;33.67;;;1.80;99.90;;;;;;5017070;28;20188;-85
2021/10/26 05:56:35;;;;;;;93.47;35.60;;;2.40;99.90;;;;;;5034309;28;20599;-83
2021/10/26 05:59:01;;;;;;;84.23;35.23;;;1.90;99.90;;;;;;5017787;28;20213;-86
2021/10/26 06:01:26;;;;;;;88.27;35.30;;;1.90;99.90;;;;;;5051890;28;20191;-87
2021/10/26 06:03:52;;;;;;;112.10;40.43;;;2.00;99.90;;;;;;5050529;28;20230;-84
2021/10/26 06:06:18;;;;;;;79.30;31.43;;;2.10;99.90;;;;;;5050444;28;20191;-84
2021/10/26 06:08:44;;;;;;;86.13;33.30;;;2.30;99.90;;;;;;5032861;28;20186;-84
2021/10/26 06:11:13;;;;;;;92.47;29.60;;;2.30;99.90;;;;;;5016884;28;20470;-82
2021/10/26 06:13:49;;;;;;;70.67;30.30;;;2.50;99.90;;;;;;5032837;28;20200;-83
2021/10/26 06:16:15;;;;;;;70.30;28.07;;;3.60;99.90;;;;;;5033110;28;20242;-83
2021/10/26 06:18:40;;;;;;;51.57;19.37;;;2.80;99.90;;;;;;5033895;28;20186;-84
2021/10/26 06:21:06;;;;;;;72.70;28.70;;;2.90;99.90;;;;;;5051311;28;20795;-85
2021/10/26 06:23:33;;;;;;;69.10;25.50;;;3.00;99.90;;;;;;5051717;28;20285;-91
2021/10/26 06:26:00;;;;;;;62.07;22.93;;;3.20;99.90;;;;;;5033864;28;20631;-85
2021/10/26 06:28:27;;;;;;;62.03;23.47;;;3.30;99.90;;;;;;5034305;28;20188;-85
2021/10/26 06:30:53;;;;;;;52.73;22.47;;;3.50;99.90;;;;;;5033691;28;20204;-85
2021/10/26 06:33:19;;;;;;;70.77;27.20;;;3.60;99.90;;;;;;5033975;28;20290;-86
2021/10/26 06:35:45;;;;;;;64.17;25.20;;;3.80;99.90;;;;;;5035687;28;20595;-87
2021/10/26 06:38:10;;;;;;;67.10;24.67;;;3.90;99.90;;;;;;5055822;28;20202;-88
2021/10/26 06:40:37;;;;;;;43.50;16.73;;;4.10;99.90;;;;;;5019852;28;20608;-87
2021/10/26 06:43:02;;;;;;;29.40;14.17;;;4.30;99.90;;;;;;5020433;28;20421;-87
2021/10/26 06:45:28;;;;;;;41.87;15.30;;;4.30;99.90;;;;;;5054529;28;20180;-87
2021/10/26 06:47:54;;;;;;;38.50;16.57;;;4.50;99.90;;;;;;5036737;28;20337;-84
2021/10/26 06:50:20;;;;;;;40.57;17.20;;;4.60;99.90;;;;;;5036873;28;20548;-85
2021/10/26 06:52:46;;;;;;;51.77;18.67;;;4.80;99.90;;;;;;5054404;28;20210;-85
2021/10/26 06:55:18;;;;;;;42.17;12.10;;;4.90;99.90;;;;;;5054575;28;20179;-86
2021/10/26 06:57:46;;;;;;;33.67;14.30;;;5.00;99.90;;;;;;5055309;28;20160;-86
2021/10/26 07:00:14;;;;;;;51.20;16.63;;;5.10;99.90;;;;;;5020648;28;20749;-85
2021/10/26 07:02:46;;;;;;;18.00;9.70;;;5.50;99.90;;;;;;5055105;28;20273;-88
2021/10/26 07:05:14;;;;;;;29.33;11.37;;;5.30;99.90;;;;;;5037302;28;20214;-87
2021/10/26 07:07:40;;;;;;;22.70;10.43;;;5.50;99.90;;;;;;5039572;28;20621;-88
2021/10/26 07:10:06;;;;;;;19.17;9.50;;;5.60;99.90;;;;;;5005877;28;20184;-87
2021/10/26 07:12:31;;;;;;;29.17;11.53;;;5.60;99.90;;;;;;5037744;28;20200;-87
2021/10/26 07:14:57;;;;;;;29.27;11.80;;;5.80;99.90;;;;;;5057579;28;20659;-87
2021/10/26 07:17:23;;;;;;;20.30;10.60;;;5.90;99.90;;;;;;5061981;28;20210;-87
2021/10/26 07:19:49;;;;;;;26.90;9.67;;;6.00;99.90;;;;;;5048330;28;20184;-86
2021/10/26 07:22:15;;;;;;;19.97;9.90;;;6.20;99.90;;;;;;5061392;28;20679;-89
2021/10/26 07:24:55;;;;;;;22.03;9.90;;;6.20;99.90;;;;;;5040174;28;20259;-88
2021/10/26 07:27:21;;;;;;;24.53;9.53;;;6.70;99.90;;;;;;5037538;28;20296;-92
2021/10/26 07:29:51;;;;;;;19.97;8.73;;;6.40;99.90;;;;;;5035358;28;20195;-93
2021/10/26 07:32:18;;;;;;;17.70;8.40;;;;;;;;;;5035551;28;20200;-86
2021/10/26 07:34:44;;;;;;;20.00;9.33;;;6.50;99.90;;;;;;5034432;28;20194;-90
2021/10/26 07:37:10;;;;;;;20.60;9.63;;;;;;;;;;5034666;28;20185;-91
2021/10/26 07:39:47;;;;;;;14.83;8.93;;;;;;;;;;5035317;28;20255;-90
2021/10/26 07:42:19;;;;;;;16.53;9.03;;;6.80;99.90;;;;;;5036098;28;20238;-93
2021/10/26 07:44:46;;;;;;;16.80;8.90;;;6.90;99.90;;;;;;5035133;28;20192;-93
2021/10/26 07:47:16;;;;;;;28.43;9.80;;;;;;;;;;5035809;28;20187;-92
2021/10/26 07:49:49;;;;;;;20.03;8.97;;;7.00;99.90;;;;;;5035940;28;20323;-93
2021/10/26 07:52:18;;;;;;;17.93;9.07;;;7.10;99.90;;;;;;5036511;28;20188;-91
2021/10/26 07:54:52;;;;;;;16.37;8.90;;;7.10;99.90;;;;;;5002644;28;20184;-91
2021/10/26 07:57:26;;;;;;;22.83;10.03;;;7.10;99.90;;;;;;5035003;28;20220;-93
2021/10/26 07:59:52;;;;;;;18.27;9.33;;;7.20;99.90;;;;;;5034920;28;20181;-92
2021/10/26 08:02:24;;;;;;;25.37;10.17;;;7.20;99.90;;;;;;5035929;28;20342;-91
2021/10/26 08:04:53;;;;;;;17.30;9.90;;;7.20;99.90;;;;;;5037148;28;20233;-94
2021/10/26 08:07:27;;;;;;;22.07;9.30;;;;;;;;;;5038157;28;20183;-92
2021/10/26 08:10:09;;;;;;;26.63;9.50;;;7.40;99.90;;;;;;5035786;28;20180;-93
2021/10/26 08:12:35;;;;;;;18.07;9.10;;;;;;;;;;5035602;28;20389;-93
2021/10/26 08:15:02;;;;;;;15.50;8.53;;;7.50;99.90;;;;;;5035452;28;20180;-93
2021/10/26 08:17:28;;;;;;;18.60;8.57;;;;;;;;;;5034169;28;20180;-93
2021/10/26 08:19:57;;;;;;;17.27;8.60;;;7.60;99.90;;;;;;5034936;28;20589;-94
2021/10/26 08:22:26;;;;;;;20.57;9.50;;;7.60;99.90;;;;;;5035477;28;20737;-93
2021/10/26 08:24:57;;;;;;;18.73;9.00;;;7.70;99.90;;;;;;5053401;28;20227;-94
2021/10/26 08:27:24;;;;;;;24.80;9.70;;;;;;;;;;5037160;28;20713;-92
2021/10/26 08:29:55;;;;;;;21.27;8.93;;;;;;;;;;5037685;28;20187;-92
2021/10/26 08:32:42;;;;;;;20.57;9.53;;;7.80;99.90;;;;;;5037580;28;20190;-95
2021/10/26 08:38:10;;;;;;;21.27;9.40;;;8.00;99.90;;;;;;5055133;28;20625;-92
2021/10/26 08:40:37;;;;;;;20.40;10.33;;;6.80;99.90;;;;;;5054092;28;20275;-93
2021/10/26 08:43:23;;;;;;;;;;;;;;;;;;;;;
2021/10/26 08:46:03;;;;;;;21.23;9.97;;;8.50;99.90;;;;;;5056375;28;20230;-94
2021/10/26 08:48:50;;;;;;;21.63;9.43;;;8.70;99.90;;;;;;5038956;28;20625;-93
2021/10/26 08:51:34;;;;;;;21.27;9.53;;;8.80;99.90;;;;;;5037631;28;20183;-92
2021/10/26 08:54:00;;;;;;;51.43;10.87;;;;;;;;;;5025410;28;20711;-93
2021/10/26 08:56:28;;;;;;;20.37;9.13;;;9.00;99.90;;;;;;5037233;28;20190;-93
2021/10/26 09:02:07;;;;;;;22.70;8.77;;;9.00;99.90;;;;;;5054615;28;20219;-92
2021/10/26 09:04:37;;;;;;;22.53;9.77;;;9.00;99.90;;;;;;5036768;28;20188;-94
2021/10/26 09:07:18;;;;;;;19.33;9.27;;;9.10;99.90;;;;;;5036958;28;20601;-92
2021/10/26 09:09:45;;;;;;;19.57;10.03;;;;;;;;;;5037026;28;20754;-92
2021/10/26 09:17:43;;;;;;;25.33;10.83;;;9.50;99.90;;;;;;5054795;28;20183;-92
2021/10/26 09:20:14;;;;;;;28.07;10.50;;;9.50;99.90;;;;;;5036677;28;20191;-89
2021/10/26 09:22:47;;;;;;;23.67;10.33;;;9.60;99.90;;;;;;5036532;28;20222;-93
2021/10/26 09:25:14;;;;;;;23.40;9.80;;;;;;;;;;5032483;28;20240;-93
2021/10/26 09:27:40;;;;;;;22.03;11.03;;;9.70;99.90;;;;;;5032621;28;20184;-93
2021/10/26 09:30:12;;;;;;;22.43;10.17;;;10.00;99.90;;;;;;5036800;28;20180;-94
2021/10/26 09:32:54;;;;;;;22.90;11.13;;;10.30;99.90;;;;;;5043676;28;20180;-93
2021/10/26 09:35:23;;;;;;;20.40;9.33;;;;;;;;;;5037538;28;20168;-90
2021/10/26 09:37:56;;;;;;;24.77;9.53;;;9.70;99.90;;;;;;5035906;28;20184;-93
2021/10/26 09:40:41;;;;;;;20.47;9.60;;;10.60;99.90;;;;;;5032727;28;20705;-92
2021/10/26 09:43:13;;;;;;;21.00;9.83;;;10.50;99.90;;;;;;5033148;28;20199;-92
2021/10/26 09:45:39;;;;;;;18.97;9.50;;;;;;;;;;5032878;28;20227;-93
2021/10/26 09:48:17;;;;;;;19.07;8.83;;;9.20;99.90;;;;;;5032986;28;20184;-93
2021/10/26 09:50:43;;;;;;;17.90;8.80;;;10.80;99.90;;;;;;5032597;28;20692;-92
2021/10/26 09:53:12;;;;;;;21.57;8.63;;;10.90;99.90;;;;;;5032412;28;20195;-91
2021/10/26 09:55:47;;;;;;;21.27;9.33;;;11.00;99.90;;;;;;5032280;28;20199;-92
2021/10/26 09:58:15;;;;;;;19.93;8.70;;;11.20;99.90;;;;;;5032513;28;20179;-92
2021/10/26 10:00:46;;;;;;;16.43;7.73;;;11.50;99.90;;;;;;5032386;28;20176;-92
2021/10/26 10:03:25;;;;;;;15.90;8.15;;;11.50;99.90;;;;;;5031931;28;20212;-90
2021/10/26 10:05:59;;;;;;;16.15;8.30;;;11.70;99.90;;;;;;5015501;28;20227;-91
2021/10/26 10:08:36;;;;;;;19.92;8.52;;;11.40;99.90;;;;;;5033216;28;20606;-91
2021/10/26 10:11:59;;;;;;;19.92;8.90;;;11.60;99.90;;;;;;5035177;28;20188;-93
2021/10/26 10:14:26;;;;;;;45.72;9.02;;;13.80;99.90;;;;;;5027473;28;20195;-93
2021/10/26 10:16:55;;;;;;;71.68;9.77;;;11.60;99.90;;;;;;5036846;28;20181;-95
2021/10/26 10:19:34;;;;;;;20.20;8.00;;;11.80;99.90;;;;;;5036300;28;20688;-92
2021/10/26 10:22:07;;;;;;;16.55;8.25;;;10.70;99.90;;;;;;5036013;28;20204;-92
2021/10/26 10:24:41;;;;;;;14.85;7.95;;;11.90;99.90;;;;;;5036026;28;20281;-91
2021/10/26 10:27:09;;;;;;;19.27;8.73;;;11.50;99.90;;;;;;5035955;28;20184;-94
2021/10/26 10:29:38;;;;;;;15.80;8.18;;;11.80;99.90;;;;;;5036479;28;20193;-92
2021/10/26 10:32:10;;;;;;;16.00;7.97;;;12.10;99.50;;;;;;5038733;28;20180;-92
2021/10/26 10:34:37;;;;;;;13.57;7.60;;;11.80;99.10;;;;;;5037466;28;20180;-92
2021/10/26 10:37:06;;;;;;;15.35;8.18;;;12.30;99.30;;;;;;5038772;28;20181;-93
2021/10/26 10:39:38;;;;;;;23.05;8.82;;;12.30;99.90;;;;;;5042305;28;20226;-94
2021/10/26 10:42:18;;;;;;;22.75;7.78;;;12.20;98.80;;;;;;5038032;28;20270;-93
2021/10/26 10:51:31;;;;;;;11.80;6.80;;;12.60;97.00;;;;;;5037153;28;20215;-92
2021/10/26 10:53:57;;;;;;;17.02;7.80;;;12.60;96.90;;;;;;5036269;28;20519;-92
2021/10/26 10:56:24;;;;;;;16.25;7.45;;;12.30;99.10;;;;;;5035805;28;20176;-93
2021/10/26 10:59:04;;;;;;;15.15;7.57;;;12.50;98.30;;;;;;5036113;28;20184;-94
2021/10/26 11:02:27;;;;;;;17.08;7.30;;;12.20;97.30;;;;;;5005188;28;20228;-91
2021/10/26 11:05:05;;;;;;;16.25;7.72;;;12.20;96.00;;;;;;4990918;28;20192;-92
2021/10/26 11:15:00;;;;;;;14.88;7.57;;;12.70;95.90;;;;;;4995865;28;20217;-93
2021/10/26 11:17:43;;;;;;;14.90;7.32;;;12.90;95.40;;;;;;5005363;28;20192;-92
2021/10/26 11:21:01;;;;;;;18.67;7.70;;;13.00;95.30;;;;;;5035119;28;20173;-91
2021/10/26 11:23:42;;;;;;;13.35;6.57;;;13.40;94.70;;;;;;5047961;28;20232;-91
2021/10/26 11:26:33;;;;;;;21.92;8.40;;;12.60;92.80;;;;;;5060335;28;20183;-89
2021/10/26 11:32:15;;;;;;;19.67;7.72;;;13.40;92.90;;;;;;5502133;22;20240;-93
2021/10/26 11:35:27;;;;;;;;;;;;;;;;;;;;;
2021/10/26 11:38:42;;;;;;;14.77;7.93;;;13.50;94.60;;;;;;5060077;28;20157;-92
2021/10/26 11:41:29;;;;;;;21.85;8.25;;;13.30;94.50;;;;;;4999935;28;20195;-92
2021/10/26 11:47:43;;;;;;;19.90;8.27;;;13.20;94.00;;;;;;5142526;22;21438;-91
2021/10/26 11:50:22;;;;;;;21.52;8.00;;;11.50;95.40;;;;;;5055234;28;20157;-93
2021/10/26 11:53:08;;;;;;;21.58;8.30;;;13.40;93.20;;;;;;5057639;28;20404;-93
2021/10/26 11:58:40;;;;;;;20.20;8.82;;;11.60;94.60;;;;;;5022802;28;20609;-92
2021/10/26 12:01:27;;;;;;;;;;;;;;;;;;;;;
2021/10/26 12:04:02;;;;;;;17.05;8.52;;;13.80;94.40;;;;;;5034614;28;20173;-92
2021/10/26 12:06:35;;;;;;;20.38;10.20;;;13.40;94.70;;;;;;5015502;28;20648;-94
2021/10/26 12:09:22;;;;;;;21.83;8.82;;;11.70;93.30;;;;;;5033817;28;20173;-90
2021/10/26 12:12:06;;;;;;;;;;;;;;;;;;;;;
2021/10/26 12:14:44;;;;;;;23.77;9.70;;;12.90;94.50;;;;;;5034441;28;20184;-89
2021/10/26 12:17:28;;;;;;;20.83;8.93;;;12.70;95.20;;;;;;5034307;28;20594;-91
2021/10/26 12:19:58;;;;;;;19.17;9.05;;;12.80;96.30;;;;;;5033464;28;20176;-91
2021/10/26 12:22:59;;;;;;;14.48;8.55;;;12.80;94.80;;;;;;5033530;28;20673;-92
2021/10/26 12:25:57;;;;;;;;;;;;;;;;;;;;;
2021/10/26 12:29:05;;;;;;;17.63;8.90;;;12.50;94.50;;;;;;5037838;28;20248;-93
2021/10/26 12:31:33;;;;;;;15.30;8.38;;;12.80;94.80;;;;;;5033565;28;20692;-89
2021/10/26 12:34:05;;;;;;;17.08;9.43;;;12.50;97.10;;;;;;5034340;28;20184;-92
2021/10/26 12:37:16;;;;;;;20.83;8.77;;;12.90;96.50;;;;;;5038575;28;20607;-91
2021/10/26 12:39:52;;;;;;;19.73;9.68;;;10.80;94.40;;;;;;5036510;28;20593;-91
2021/10/26 12:42:41;;;;;;;21.50;8.75;;;13.20;96.70;;;;;;5036989;28;20707;-92
2021/10/26 12:45:36;;;;;;;13.88;8.52;;;12.90;95.00;;;;;;5035501;28;20271;-91
2021/10/26 12:48:06;;;;;;;20.00;7.72;;;12.80;95.20;;;;;;5033540;28;20228;-91
2021/10/26 12:50:39;;;;;;;21.80;8.88;;;13.60;95.50;;;;;;5038994;28;20188;-91
2021/10/26 12:53:38;;;;;;;18.05;9.75;;;12.90;95.70;;;;;;5040488;28;20252;-90
2021/10/26 12:59:29;;;;;;;18.25;9.45;;;13.20;95.80;;;;;;5046069;28;20195;-90
2021/10/26 13:02:06;;;;;;;19.38;10.10;;;15.70;96.40;;;;;;5022364;28;20215;-91
2021/10/26 13:04:41;;;;;;;18.85;9.85;;;12.50;94.70;;;;;;5043308;28;20188;-89
2021/10/26 13:07:12;;;;;;;20.35;8.60;;;13.60;95.90;;;;;;5044229;28;20188;-90
2021/10/26 13:09:53;;;;;;;26.65;9.68;;;13.80;94.30;;;;;;5040253;28;20176;-90
2021/10/26 13:12:29;;;;;;;25.75;9.80;;;14.10;94.90;;;;;;5043365;28;20180;-89
2021/10/26 13:15:07;;;;;;;21.13;8.93;;;14.00;94.00;;;;;;5035432;28;20310;-89
2021/10/26 13:17:46;;;;;;;20.58;8.98;;;13.90;93.80;;;;;;5034774;28;20187;-89
2021/10/26 13:20:40;;;;;;;;;;;;;;;;;;;;;
2021/10/26 13:23:26;;;;;;;13.00;7.15;;;13.90;92.50;;;;;;5035480;28;20210;-90
2021/10/26 13:25:56;;;;;;;15.13;8.82;;;13.30;93.30;;;;;;5032297;28;20188;-89
2021/10/26 13:28:28;;;;;;;22.23;7.78;;;13.60;93.40;;;;;;5033885;28;20204;-89
2021/10/26 13:31:04;;;;;;;18.60;7.78;;;13.10;93.30;;;;;;5017077;28;20219;-89
2021/10/26 13:33:33;;;;;;;17.73;8.68;;;13.00;93.20;;;;;;5038067;28;20251;-88
2021/10/26 13:36:01;;;;;;;23.15;8.57;;;12.80;93.60;;;;;;5039741;28;20263;-90
2021/10/26 13:38:28;;;;;;;24.02;8.73;;;12.80;94.50;;;;;;5044999;28;20196;-89
2021/10/26 13:40:58;;;;;;;19.42;8.75;;;12.60;95.10;;;;;;5043458;28;20247;-88
2021/10/26 13:43:25;;;;;;;19.92;9.45;;;12.60;95.70;;;;;;5029200;28;20191;-91
2021/10/26 13:46:01;;;;;;;21.63;8.52;;;12.50;96.10;;;;;;5052894;28;20247;-90